Time;durP1;ratioP1;P1;durP2;ratioP2;P2;SDS_P1;SDS_P2;PMS_P1;PMS_P2;Temp;Humidity;BMP_temperature;BMP_pressure;BME280_temperature;BME280_humidity;BME280_pressure;Samples;Min_cycle;Max_cycle;Signal;HPM_P1;HPM_P2
2023/05/04 00:00:29;;;;;;;28.45;12.30;;;;;;;;;;5035687;28;20032;-78
2023/05/04 00:02:54;;;;;;;25.83;10.73;;;;;;;;;;5035503;28;20052;-76
2023/05/04 00:05:20;;;;;;;21.65;11.00;;;;;;;;;;5035627;28;20029;-76
2023/05/04 00:07:45;;;;;;;21.08;10.23;;;;;;;;;;5035551;28;20021;-77
2023/05/04 00:10:11;;;;;;;21.92;10.02;;;;;;;;;;5034299;28;20083;-69
2023/05/04 00:12:37;;;;;;;20.67;10.10;;;;;;;;;;5035800;28;20151;-69
2023/05/04 00:15:03;;;;;;;25.45;11.13;;;;;;;;;;5035569;28;20101;-74
2023/05/04 00:17:29;;;;;;;27.48;10.70;;;;;;;;;;5035296;28;20101;-72
2023/05/04 00:19:54;;;;;;;17.90;9.00;;;;;;;;;;5035198;28;20022;-76
2023/05/04 00:22:20;;;;;;;20.08;8.32;;;;;;;;;;5035567;28;20131;-74
2023/05/04 00:24:45;;;;;;;21.15;9.35;;;;;;;;;;5035523;28;20021;-69
2023/05/04 00:27:11;;;;;;;18.23;8.68;;;;;;;;;;5035218;28;20483;-67
2023/05/04 00:29:36;;;;;;;20.40;8.50;;;;;;;;;;5035104;28;20026;-77
2023/05/04 00:32:02;;;;;;;23.42;8.32;;;;;;;;;;5035199;28;20029;-77
2023/05/04 00:34:28;;;;;;;22.33;9.35;;;;;;;;;;5035362;28;20028;-76
2023/05/04 00:36:54;;;;;;;18.85;9.18;;;;;;;;;;5035162;28;20033;-66
2023/05/04 00:39:20;;;;;;;19.98;9.13;;;;;;;;;;5035198;28;20033;-69
2023/05/04 00:41:45;;;;;;;23.85;11.07;;;;;;;;;;5034188;28;20017;-74
2023/05/04 00:44:11;;;;;;;18.73;9.20;;;;;;;;;;5034748;28;20104;-73
2023/05/04 00:46:36;;;;;;;22.40;8.65;;;;;;;;;;5034942;28;20021;-70
2023/05/04 00:49:02;;;;;;;22.20;9.65;;;;;;;;;;5034856;28;20025;-70
2023/05/04 00:51:29;;;;;;;17.58;8.60;;;;;;;;;;5034991;28;20128;-68
2023/05/04 00:53:54;;;;;;;23.77;10.02;;;;;;;;;;5034915;28;20033;-73
2023/05/04 00:56:23;;;;;;;18.20;9.38;;;;;;;;;;5034807;28;20075;-72
2023/05/04 00:58:53;;;;;;;25.63;14.85;;;;;;;;;;5034750;28;20025;-78
2023/05/04 01:01:20;;;;;;;26.47;13.17;;;;;;;;;;5034652;28;20045;-79
2023/05/04 01:03:46;;;;;;;19.30;11.20;;;;;;;;;;5034694;28;20060;-77
2023/05/04 01:06:25;;;;;;;22.98;11.18;;;;;;;;;;5034787;28;20029;-73
2023/05/04 01:08:59;;;;;;;22.52;9.75;;;;;;;;;;5034572;28;20112;-79
2023/05/04 01:11:45;;;;;;;17.05;9.32;;;;;;;;;;5034621;28;20041;-73
2023/05/04 01:14:13;;;;;;;16.58;7.75;;;;;;;;;;5034529;28;20021;-68
2023/05/04 01:16:38;;;;;;;20.08;8.75;;;;;;;;;;5034297;28;20025;-68
2023/05/04 01:19:04;;;;;;;17.67;8.43;;;;;;;;;;5034295;28;20081;-67
2023/05/04 01:21:30;;;;;;;23.80;9.02;;;;;;;;;;5034059;28;20053;-68
2023/05/04 01:23:55;;;;;;;23.88;10.48;;;;;;;;;;5034257;28;20026;-71
2023/05/04 01:26:28;;;;;;;25.17;12.30;;;;;;;;;;5033977;28;20569;-66
2023/05/04 01:29:03;;;;;;;26.50;10.93;;;;;;;;;;5034228;28;20467;-66
2023/05/04 01:31:30;;;;;;;26.98;9.57;;;;;;;;;;5033821;28;20030;-69
2023/05/04 01:33:56;;;;;;;23.40;10.80;;;;;;;;;;5034034;28;20108;-68
2023/05/04 01:36:22;;;;;;;21.10;10.05;;;;;;;;;;5033873;28;20029;-67
2023/05/04 01:38:48;;;;;;;23.90;9.85;;;;;;;;;;5033789;28;20036;-66
2023/05/04 01:41:13;;;;;;;22.35;8.65;;;;;;;;;;5033775;28;20056;-72
2023/05/04 01:43:40;;;;;;;14.18;7.50;;;;;;;;;;5033982;28;20021;-68
2023/05/04 01:46:06;;;;;;;19.60;7.50;;;;;;;;;;5033690;28;20034;-74
2023/05/04 01:48:31;;;;;;;17.95;8.15;;;;;;;;;;5033859;28;20036;-65
2023/05/04 01:50:57;;;;;;;15.98;7.05;;;;;;;;;;5033610;28;20025;-67
2023/05/04 01:53:22;;;;;;;17.67;7.22;;;;;;;;;;5033475;28;20079;-76
2023/05/04 01:55:48;;;;;;;15.50;7.93;;;;;;;;;;5033469;28;20513;-67
2023/05/04 01:58:13;;;;;;;21.73;8.00;;;;;;;;;;5033775;28;20022;-70
2023/05/04 02:00:38;;;;;;;15.95;7.35;;;;;;;;;;5033381;28;20033;-69
2023/05/04 02:03:04;;;;;;;15.25;7.22;;;;;;;;;;5033532;28;20033;-67
2023/05/04 02:05:29;;;;;;;14.45;7.03;;;;;;;;;;5033533;28;20021;-69
2023/05/04 02:07:55;;;;;;;15.30;7.03;;;;;;;;;;5033352;28;20496;-66
2023/05/04 02:10:20;;;;;;;14.48;6.60;;;;;;;;;;5031848;28;20037;-76
2023/05/04 02:12:46;;;;;;;16.88;7.22;;;;;;;;;;5033356;28;20129;-65
2023/05/04 02:15:11;;;;;;;14.43;7.28;;;;;;;;;;5033191;28;20463;-64
2023/05/04 02:17:37;;;;;;;17.00;7.10;;;;;;;;;;5033184;28;20332;-64
2023/05/04 02:20:03;;;;;;;17.65;6.65;;;;;;;;;;5032987;28;20375;-75
2023/05/04 02:22:29;;;;;;;13.57;7.13;;;;;;;;;;5032040;28;20033;-66
2023/05/04 02:24:54;;;;;;;15.18;6.88;;;;;;;;;;5033264;28;20024;-68
2023/05/04 02:27:19;;;;;;;14.00;7.60;;;;;;;;;;5032938;28;20458;-74
2023/05/04 02:29:45;;;;;;;20.48;9.13;;;;;;;;;;5032838;28;20533;-73
2023/05/04 02:32:10;;;;;;;16.63;8.02;;;;;;;;;;5033096;28;20033;-70
2023/05/04 02:34:36;;;;;;;17.25;7.95;;;;;;;;;;5033115;28;20080;-66
2023/05/04 02:37:01;;;;;;;15.63;7.32;;;;;;;;;;5033031;28;20017;-76
2023/05/04 02:39:26;;;;;;;15.20;7.60;;;;;;;;;;5033148;28;20025;-68
2023/05/04 02:41:52;;;;;;;17.45;8.30;;;;;;;;;;5032918;28;20030;-75
2023/05/04 02:44:17;;;;;;;16.60;8.10;;;;;;;;;;5032517;28;20104;-71
2023/05/04 02:46:43;;;;;;;15.23;7.88;;;;;;;;;;5032810;28;20463;-67
2023/05/04 02:49:08;;;;;;;19.70;7.97;;;;;;;;;;5032664;28;20044;-65
2023/05/04 02:51:33;;;;;;;21.42;8.23;;;;;;;;;;5032896;28;20022;-69
2023/05/04 02:53:59;;;;;;;24.02;8.65;;;;;;;;;;5032720;28;20034;-72
2023/05/04 02:56:24;;;;;;;22.33;9.10;;;;;;;;;;5032554;28;20025;-65
2023/05/04 02:58:50;;;;;;;19.20;7.95;;;;;;;;;;5032412;28;20025;-74
2023/05/04 03:01:15;;;;;;;27.70;9.32;;;;;;;;;;5032757;28;20047;-67
2023/05/04 03:03:41;;;;;;;15.40;7.93;;;;;;;;;;5032851;28;20022;-69
2023/05/04 03:06:06;;;;;;;15.38;7.75;;;;;;;;;;5034867;28;20059;-76
2023/05/04 03:08:32;;;;;;;14.30;7.75;;;;;;;;;;5036671;28;20022;-70
2023/05/04 03:10:57;;;;;;;17.50;8.02;;;;;;;;;;5036725;28;20095;-69
2023/05/04 03:13:22;;;;;;;18.20;8.32;;;;;;;;;;5036420;28;20029;-65
2023/05/04 03:15:48;;;;;;;21.20;8.18;;;;;;;;;;5036590;28;20179;-72
2023/05/04 03:18:13;;;;;;;19.55;8.40;;;;;;;;;;5036464;28;20022;-76
2023/05/04 03:20:39;;;;;;;27.40;8.23;;;;;;;;;;5035988;28;20118;-69
2023/05/04 03:23:05;;;;;;;23.05;8.77;;;;;;;;;;5036558;28;20025;-70
2023/05/04 03:25:30;;;;;;;22.75;7.80;;;;;;;;;;5036139;28;20041;-67
2023/05/04 03:27:56;;;;;;;19.00;8.38;;;;;;;;;;5036210;28;20471;-69
2023/05/04 03:30:22;;;;;;;18.30;7.97;;;;;;;;;;5036294;28;20419;-66
2023/05/04 03:32:47;;;;;;;20.80;8.40;;;;;;;;;;5036284;28;20467;-70
2023/05/04 03:35:13;;;;;;;22.13;10.23;;;;;;;;;;5036406;28;20513;-68
2023/05/04 03:37:38;;;;;;;28.85;9.15;;;;;;;;;;5036302;28;20474;-73
2023/05/04 03:40:05;;;;;;;30.10;8.80;;;;;;;;;;5035972;28;20025;-74
2023/05/04 03:42:30;;;;;;;21.25;7.53;;;;;;;;;;5036004;28;20022;-80
2023/05/04 03:44:55;;;;;;;16.40;7.85;;;;;;;;;;5036181;28;20380;-79
2023/05/04 03:47:21;;;;;;;17.45;7.65;;;;;;;;;;5036164;28;20017;-79
2023/05/04 03:49:46;;;;;;;31.63;9.85;;;;;;;;;;5035343;28;20427;-79
2023/05/04 03:52:12;;;;;;;21.75;8.65;;;;;;;;;;5034829;28;20026;-79
2023/05/04 03:54:37;;;;;;;31.77;9.32;;;;;;;;;;5035795;28;20025;-80
2023/05/04 03:57:03;;;;;;;26.02;8.88;;;;;;;;;;5035631;28;20029;-78
2023/05/04 03:59:29;;;;;;;21.13;9.05;;;;;;;;;;5036022;28;20060;-79
2023/05/04 04:01:55;;;;;;;26.15;8.88;;;;;;;;;;5035831;28;20029;-79
2023/05/04 04:04:20;;;;;;;22.35;9.48;;;;;;;;;;5035856;28;20433;-78
2023/05/04 04:06:46;;;;;;;22.63;9.70;;;;;;;;;;5035855;28;20018;-79
2023/05/04 04:09:11;;;;;;;23.38;9.07;;;;;;;;;;5035522;28;20048;-79
2023/05/04 04:11:36;;;;;;;29.88;9.75;;;;;;;;;;5035522;28;20025;-79
2023/05/04 04:14:02;;;;;;;21.77;9.27;;;;;;;;;;5034415;28;20091;-78
2023/05/04 04:16:27;;;;;;;24.88;10.88;;;;;;;;;;5035505;28;20048;-78
2023/05/04 04:18:53;;;;;;;21.98;11.05;;;;;;;;;;5035559;28;20076;-79
2023/05/04 04:21:18;;;;;;;35.72;12.48;;;;;;;;;;5035286;28;20037;-76
2023/05/04 04:23:44;;;;;;;26.60;12.18;;;;;;;;;;5035441;28;20026;-73
2023/05/04 04:26:09;;;;;;;33.85;13.60;;;;;;;;;;5035035;28;20099;-77
2023/05/04 04:28:35;;;;;;;20.88;11.68;;;;;;;;;;5035269;28;20068;-67
2023/05/04 04:31:02;;;;;;;30.90;11.52;;;;;;;;;;5035115;28;20116;-70
2023/05/04 04:33:27;;;;;;;27.83;12.75;;;;;;;;;;5035352;28;20029;-73
2023/05/04 04:35:53;;;;;;;27.63;13.55;;;;;;;;;;5035099;28;20068;-66
2023/05/04 04:38:18;;;;;;;26.58;14.27;;;;;;;;;;5034837;28;20034;-69
2023/05/04 04:40:44;;;;;;;36.53;17.02;;;;;;;;;;5035196;28;20032;-69
2023/05/04 04:43:10;;;;;;;37.95;15.60;;;;;;;;;;5034785;28;20041;-64
2023/05/04 04:45:36;;;;;;;29.15;15.45;;;;;;;;;;5034996;28;20026;-74
2023/05/04 04:48:02;;;;;;;30.73;14.38;;;;;;;;;;5035022;28;20467;-70
2023/05/04 04:50:28;;;;;;;32.95;14.73;;;;;;;;;;5034943;28;20128;-70
2023/05/04 04:52:54;;;;;;;40.00;15.70;;;;;;;;;;5034712;28;20482;-74
2023/05/04 04:55:19;;;;;;;39.85;15.18;;;;;;;;;;5034599;28;20017;-73
2023/05/04 04:57:45;;;;;;;44.38;16.67;;;;;;;;;;5034700;28;20104;-71
2023/05/04 05:00:14;;;;;;;42.28;17.35;;;;;;;;;;5034692;28;20070;-78
2023/05/04 05:02:40;;;;;;;52.25;18.17;;;;;;;;;;5034615;28;20102;-70
2023/05/04 05:05:06;;;;;;;34.00;16.88;;;;;;;;;;5034556;28;20531;-77
2023/05/04 05:07:31;;;;;;;34.40;16.08;;;;;;;;;;5034357;28;20026;-66
2023/05/04 05:09:57;;;;;;;30.00;14.68;;;;;;;;;;5034315;28;20099;-71
2023/05/04 05:12:22;;;;;;;31.75;14.05;;;;;;;;;;5034151;28;20430;-71
2023/05/04 05:14:49;;;;;;;31.83;14.32;;;;;;;;;;5034284;28;20021;-79
2023/05/04 05:17:15;;;;;;;29.60;14.57;;;;;;;;;;5034206;28;20061;-70
2023/05/04 05:19:40;;;;;;;25.30;13.15;;;;;;;;;;5033935;28;20075;-72
2023/05/04 05:22:06;;;;;;;22.45;10.50;;;;;;;;;;5033867;28;20037;-73
2023/05/04 05:24:31;;;;;;;31.58;12.13;;;;;;;;;;5033464;28;20030;-68
2023/05/04 05:26:57;;;;;;;29.30;11.02;;;;;;;;;;5034019;28;20053;-66
2023/05/04 05:29:23;;;;;;;25.30;9.13;;;;;;;;;;5033548;28;20120;-67
2023/05/04 05:31:48;;;;;;;18.23;8.77;;;;;;;;;;5033944;28;20021;-73
2023/05/04 05:34:13;;;;;;;14.98;6.68;;;;;;;;;;5033977;28;20021;-75
2023/05/04 05:36:39;;;;;;;14.65;4.78;;;;;;;;;;5033323;28;20497;-75
2023/05/04 05:39:04;;;;;;;14.10;4.68;;;;;;;;;;5033808;28;20463;-76
2023/05/04 05:41:30;;;;;;;11.95;4.43;;;;;;;;;;5033888;28;20409;-74
2023/05/04 05:43:55;;;;;;;14.32;4.72;;;;;;;;;;5033918;28;20117;-76
2023/05/04 05:46:21;;;;;;;19.00;3.97;;;;;;;;;;5034152;28;20033;-77
2023/05/04 05:48:47;;;;;;;11.15;3.38;;;;;;;;;;5033732;28;20072;-74
2023/05/04 05:51:13;;;;;;;13.00;3.30;;;;;;;;;;5033674;28;20033;-75
2023/05/04 05:53:38;;;;;;;13.10;4.32;;;;;;;;;;5033651;28;20360;-72
2023/05/04 05:56:04;;;;;;;13.18;3.97;;;;;;;;;;5034177;28;20104;-68
2023/05/04 05:58:29;;;;;;;11.90;3.60;;;;;;;;;;5037412;28;20022;-69
2023/05/04 06:00:55;;;;;;;9.55;3.78;;;;;;;;;;5039075;28;20448;-66
2023/05/04 06:03:20;;;;;;;10.85;3.05;;;;;;;;;;5034033;28;20116;-68
2023/05/04 06:05:45;;;;;;;9.98;3.15;;;;;;;;;;5033214;28;20033;-71
2023/05/04 06:08:11;;;;;;;9.85;2.55;;;;;;;;;;5033321;28;20155;-70
2023/05/04 06:10:36;;;;;;;11.50;3.40;;;;;;;;;;5034897;28;20036;-73
2023/05/04 06:13:02;;;;;;;9.30;3.50;;;;;;;;;;5034276;28;20113;-68
2023/05/04 06:15:27;;;;;;;13.00;3.40;;;;;;;;;;5033528;28;20393;-73
2023/05/04 06:17:52;;;;;;;8.85;2.45;;;;;;;;;;5034868;28;20032;-70
2023/05/04 06:20:18;;;;;;;10.65;3.00;;;;;;;;;;5032909;28;20043;-69
2023/05/04 06:22:43;;;;;;;9.32;2.90;;;;;;;;;;5033237;28;20021;-79
2023/05/04 06:25:09;;;;;;;10.77;3.38;;;;;;;;;;5033052;28;20040;-79
2023/05/04 06:27:34;;;;;;;8.32;2.92;;;;;;;;;;5033054;28;20138;-79
2023/05/04 06:30:00;;;;;;;13.55;2.90;;;;;;;;;;5035138;28;20037;-78
2023/05/04 06:32:25;;;;;;;9.10;2.25;;;;;;;;;;5033201;28;20372;-79
2023/05/04 06:34:54;;;;;;;14.70;2.78;;;;;;;;;;5034036;28;20030;-80
2023/05/04 06:37:20;;;;;;;14.93;3.58;;;;;;;;;;5032067;28;20032;-79
2023/05/04 06:39:45;;;;;;;11.52;3.95;;;;;;;;;;5033557;28;20038;-77
2023/05/04 06:42:11;;;;;;;9.98;2.60;;;;;;;;;;5038641;28;20029;-77
2023/05/04 06:44:36;;;;;;;12.73;2.45;;;;;;;;;;5032681;28;20128;-72
2023/05/04 06:47:02;;;;;;;13.95;2.55;;;;;;;;;;5032748;28;20022;-75
2023/05/04 06:49:31;;;;;;;7.47;2.47;;;;;;;;;;5032638;28;20033;-77
2023/05/04 06:51:56;;;;;;;8.10;2.35;;;;;;;;;;5032796;28;20022;-75
2023/05/04 06:54:21;;;;;;;8.20;2.20;;;;;;;;;;5032707;28;20087;-73
2023/05/04 06:56:47;;;;;;;7.57;1.88;;;;;;;;;;5032862;28;20414;-77
2023/05/04 06:59:12;;;;;;;7.95;2.35;;;;;;;;;;5032713;28;20022;-73
2023/05/04 07:01:38;;;;;;;8.38;2.25;;;;;;;;;;5033157;28;20210;-77
2023/05/04 07:04:03;;;;;;;9.50;2.50;;;;;;;;;;5032681;28;20101;-72
2023/05/04 07:06:30;;;;;;;9.50;2.35;;;;;;;;;;5033325;28;20106;-75
2023/05/04 07:08:56;;;;;;;8.60;2.50;;;;;;;;;;5032418;28;20371;-77
2023/05/04 07:11:22;;;;;;;8.05;2.70;;;;;;;;;;5032636;28;20037;-78
2023/05/04 07:13:47;;;;;;;6.00;1.90;;;;;;;;;;5032878;28;20525;-78
2023/05/04 07:16:13;;;;;;;10.07;2.25;;;;;;;;;;5032697;28;20029;-77
2023/05/04 07:18:39;;;;;;;9.63;2.20;;;;;;;;;;5032533;28;20040;-75
2023/05/04 07:21:09;;;;;;;8.07;2.10;;;;;;;;;;5034814;28;20091;-78
2023/05/04 07:23:34;;;;;;;7.32;2.20;;;;;;;;;;5032844;28;20107;-77
2023/05/04 07:26:00;;;;;;;12.73;2.25;;;;;;;;;;5032440;28;20483;-79
2023/05/04 07:28:25;;;;;;;7.90;2.50;;;;;;;;;;5032387;28;20040;-75
2023/05/04 07:30:51;;;;;;;8.27;2.60;;;;;;;;;;5032752;28;20029;-79
2023/05/04 07:33:16;;;;;;;5.68;2.53;;;;;;;;;;5032423;28;20030;-76
2023/05/04 07:35:41;;;;;;;8.77;3.00;;;;;;;;;;5032357;28;20033;-75
2023/05/04 07:38:07;;;;;;;9.80;2.92;;;;;;;;;;5032565;28;20056;-76
2023/05/04 07:40:32;;;;;;;14.18;2.70;;;;;;;;;;5032495;28;20498;-79
2023/05/04 07:42:58;;;;;;;10.70;3.03;;;;;;;;;;5032551;28;20021;-73
2023/05/04 07:45:23;;;;;;;10.48;2.63;;;;;;;;;;5032638;28;20072;-76
2023/05/04 07:47:49;;;;;;;8.10;2.42;;;;;;;;;;5031846;28;20029;-79
2023/05/04 07:50:14;;;;;;;11.18;2.90;;;;;;;;;;5032463;28;20030;-76
2023/05/04 07:52:40;;;;;;;11.73;2.80;;;;;;;;;;5035279;28;20108;-74
2023/05/04 07:55:06;;;;;;;8.77;2.80;;;;;;;;;;5036024;28;20108;-74
2023/05/04 07:57:34;;;;;;;9.65;2.50;;;;;;;;;;5036340;28;20052;-78
2023/05/04 08:00:00;;;;;;;7.38;2.33;;;;;;;;;;5035981;28;20533;-79
2023/05/04 08:02:25;;;;;;;8.90;2.55;;;;;;;;;;5035758;28;20366;-70
2023/05/04 08:04:51;;;;;;;10.95;2.70;;;;;;;;;;5035872;28;20112;-79
2023/05/04 08:07:17;;;;;;;15.63;3.65;;;;;;;;;;5035708;28;20029;-73
2023/05/04 08:09:43;;;;;;;8.50;2.70;;;;;;;;;;5035361;28;20430;-68
2023/05/04 08:12:08;;;;;;;11.35;2.80;;;;;;;;;;5035686;28;20022;-72
2023/05/04 08:14:34;;;;;;;12.90;2.88;;;;;;;;;;5035648;28;20029;-65
2023/05/04 08:17:00;;;;;;;10.77;2.70;;;;;;;;;;5035444;28;20026;-79
2023/05/04 08:19:25;;;;;;;10.75;2.60;;;;;;;;;;5035024;28;20021;-73
2023/05/04 08:21:51;;;;;;;7.68;2.83;;;;;;;;;;5035320;28;20037;-74
2023/05/04 08:24:17;;;;;;;13.65;2.75;;;;;;;;;;5035333;28;20029;-72
2023/05/04 08:26:43;;;;;;;12.23;2.90;;;;;;;;;;5035028;28;20053;-73
2023/05/04 08:29:11;;;;;;;7.60;2.60;;;;;;;;;;5034923;28;20040;-71
2023/05/04 08:31:37;;;;;;;8.55;2.42;;;;;;;;;;5034945;28;20064;-75
2023/05/04 08:34:03;;;;;;;6.70;2.55;;;;;;;;;;5035072;28;20057;-78
2023/05/04 08:36:28;;;;;;;11.77;2.90;;;;;;;;;;5035293;28;20034;-75
2023/05/04 08:38:54;;;;;;;8.75;2.50;;;;;;;;;;5035148;28;20030;-73
2023/05/04 08:41:20;;;;;;;8.57;2.45;;;;;;;;;;5034847;28;20036;-71
2023/05/04 08:43:48;;;;;;;8.13;2.70;;;;;;;;;;5035032;28;20056;-77
2023/05/04 08:46:15;;;;;;;11.35;3.22;;;;;;;;;;5034298;28;20080;-70
2023/05/04 08:48:43;;;;;;;10.93;2.72;;;;;;;;;;5035292;28;20426;-77
2023/05/04 08:51:09;;;;;;;12.00;2.95;;;;;;;;;;5034879;28;20213;-77
2023/05/04 08:53:37;;;;;;;8.23;2.47;;;;;;;;;;5033367;28;20029;-78
2023/05/04 08:56:08;;;;;;;9.50;2.78;;;;;;;;;;5033415;28;20376;-77
2023/05/04 08:58:36;;;;;;;15.02;2.90;;;;;;;;;;5034948;28;20028;-81
2023/05/04 09:01:05;;;;;;;10.85;2.97;;;;;;;;;;5034607;28;20025;-78
2023/05/04 09:03:31;;;;;;;10.50;2.85;;;;;;;;;;5034102;28;20489;-76
2023/05/04 09:05:58;;;;;;;7.43;2.30;;;;;;;;;;5034346;28;20030;-78
2023/05/04 09:08:23;;;;;;;10.30;3.05;;;;;;;;;;5034218;28;20057;-76
2023/05/04 09:10:49;;;;;;;9.45;2.58;;;;;;;;;;5034455;28;20103;-77
2023/05/04 09:13:14;;;;;;;10.93;2.92;;;;;;;;;;5034220;28;20464;-77
2023/05/04 09:15:41;;;;;;;8.82;2.75;;;;;;;;;;5034096;28;20086;-75
2023/05/04 09:18:08;;;;;;;20.10;2.60;;;;;;;;;;5034293;28;20041;-79
2023/05/04 09:20:48;;;;;;;8.30;2.55;;;;;;;;;;5033911;28;20029;-76
2023/05/04 09:23:15;;;;;;;13.93;3.20;;;;;;;;;;5034133;28;20536;-78
2023/05/04 09:25:47;;;;;;;7.43;2.38;;;;;;;;;;5033725;28;20510;-76
2023/05/04 09:28:13;;;;;;;6.28;2.30;;;;;;;;;;5034037;28;20025;-77
2023/05/04 09:30:39;;;;;;;7.82;2.60;;;;;;;;;;5033484;28;20052;-77
2023/05/04 09:33:05;;;;;;;12.27;2.88;;;;;;;;;;5033918;28;20460;-73
2023/05/04 09:35:30;;;;;;;10.13;2.50;;;;;;;;;;5034024;28;20021;-77
2023/05/04 09:37:56;;;;;;;14.10;2.55;;;;;;;;;;5033959;28;20040;-77
2023/05/04 09:40:36;;;;;;;9.40;2.72;;;;;;;;;;5033861;28;20067;-77
2023/05/04 09:43:02;;;;;;;9.32;2.88;;;;;;;;;;5033598;28;20488;-77
2023/05/04 09:45:45;;;;;;;7.82;2.58;;;;;;;;;;5033942;28;20112;-76
2023/05/04 09:48:19;;;;;;;7.03;2.13;;;;;;;;;;5033753;28;20435;-77
2023/05/04 09:50:50;;;;;;;8.88;2.40;;;;;;;;;;5033664;28;20029;-78
2023/05/04 09:53:19;;;;;;;8.43;2.58;;;;;;;;;;5033638;28;20451;-75
2023/05/04 09:55:46;;;;;;;6.25;2.40;;;;;;;;;;5032342;28;20467;-77
2023/05/04 09:58:15;;;;;;;10.38;2.40;;;;;;;;;;5033323;28;20033;-73
2023/05/04 10:00:42;;;;;;;10.15;2.50;;;;;;;;;;5033455;28;20023;-76
2023/05/04 10:03:08;;;;;;;8.20;2.35;;;;;;;;;;5033495;28;20021;-77
2023/05/04 10:05:36;;;;;;;5.22;2.15;;;;;;;;;;5033847;28;20064;-77
2023/05/04 10:08:02;;;;;;;10.00;2.38;;;;;;;;;;5033543;28;20116;-76
2023/05/04 10:10:28;;;;;;;10.07;2.53;;;;;;;;;;5033221;28;20116;-77
2023/05/04 10:12:54;;;;;;;10.93;3.05;;;;;;;;;;5032959;28;20053;-72
2023/05/04 10:15:21;;;;;;;8.43;2.38;;;;;;;;;;5032715;28;20471;-78
2023/05/04 10:17:53;;;;;;;8.00;2.50;;;;;;;;;;5033137;28;20025;-78
2023/05/04 10:21:03;;;;;;;8.45;2.72;;;;;;;;;;5033018;28;20036;-74
2023/05/04 10:23:47;;;;;;;10.48;2.63;;;;;;;;;;5031771;28;20045;-76
2023/05/04 10:26:25;;;;;;;12.93;3.15;;;;;;;;;;5032841;28;20053;-76
2023/05/04 10:29:23;;;;;;;8.52;2.40;;;;;;;;;;5032777;28;20112;-74
2023/05/04 10:31:48;;;;;;;29.73;3.30;;;;;;;;;;5032853;28;20029;-76
2023/05/04 10:34:32;;;;;;;11.95;2.90;;;;;;;;;;5033073;28;20087;-76
2023/05/04 10:36:58;;;;;;;8.05;2.30;;;;;;;;;;5032945;28;20032;-74
2023/05/04 10:39:30;;;;;;;6.35;2.10;;;;;;;;;;5032843;28;20026;-77
2023/05/04 10:42:07;;;;;;;11.27;2.20;;;;;;;;;;5032894;28;20125;-76
2023/05/04 10:44:52;;;;;;;10.65;3.15;;;;;;;;;;5032755;28;20035;-75
2023/05/04 10:47:26;;;;;;;25.02;3.10;;;;;;;;;;5032846;28;20022;-77
2023/05/04 10:50:06;;;;;;;36.53;3.83;;;;;;;;;;5032847;28;20124;-77
2023/05/04 10:52:44;;;;;;;8.90;2.80;;;;;;;;;;5033032;28;20026;-76
2023/05/04 10:55:10;;;;;;;8.15;2.30;;;;;;;;;;5032734;28;20171;-77
2023/05/04 10:57:55;;;;;;;8.55;2.72;;;;;;;;;;5032410;28;20515;-77
2023/05/04 11:00:21;;;;;;;100.80;7.70;;;;;;;;;;5032779;28;20029;-75
2023/05/04 11:02:47;;;;;;;14.25;2.50;;;;;;;;;;5032778;28;20033;-69
2023/05/04 11:05:18;;;;;;;7.60;2.45;;;;;;;;;;5032878;28;20022;-68
2023/05/04 11:07:44;;;;;;;8.88;2.53;;;;;;;;;;5032385;28;20022;-68
2023/05/04 11:10:23;;;;;;;9.18;2.50;;;;;;;;;;5032087;28;20026;-71
2023/05/04 11:12:49;;;;;;;8.83;3.10;;;;;;;;;;5032743;28;20513;-72
2023/05/04 11:15:15;;;;;;;6.72;2.60;;;;;;;;;;5032577;28;20033;-75
2023/05/04 11:17:47;;;;;;;5.57;2.42;;;;;;;;;;5032661;28;20041;-78
2023/05/04 11:20:25;;;;;;;7.50;2.47;;;;;;;;;;5032406;28;20024;-73
2023/05/04 11:22:51;;;;;;;9.07;2.50;;;;;;;;;;5032585;28;20084;-65
2023/05/04 11:25:25;;;;;;;7.82;2.72;;;;;;;;;;5031840;28;20386;-74
2023/05/04 11:27:51;;;;;;;8.13;2.70;;;;;;;;;;5035744;28;20084;-67
2023/05/04 11:30:17;;;;;;;7.18;2.40;;;;;;;;;;5037041;28;20033;-74
2023/05/04 11:32:45;;;;;;;7.05;2.50;;;;;;;;;;5036371;28;20065;-71
2023/05/04 11:35:23;;;;;;;10.38;2.80;;;;;;;;;;5036286;28;20029;-71
2023/05/04 11:37:49;;;;;;;5.65;2.40;;;;;;;;;;5016571;28;20541;-71
2023/05/04 11:40:18;;;;;;;8.05;2.40;;;;;;;;;;5016226;28;20030;-70
2023/05/04 11:42:45;;;;;;;8.85;2.53;;;;;;;;;;5016260;28;20464;-74
2023/05/04 11:45:16;;;;;;;6.28;2.38;;;;;;;;;;5016584;28;20560;-81
2023/05/04 11:47:43;;;;;;;6.72;2.30;;;;;;;;;;5016819;28;20018;-75
2023/05/04 11:50:11;;;;;;;5.20;2.20;;;;;;;;;;5016046;28;20036;-77
2023/05/04 11:52:40;;;;;;;4.43;2.05;;;;;;;;;;5016444;28;20113;-71
2023/05/04 11:55:07;;;;;;;8.83;2.43;;;;;;;;;;5015947;28;20025;-74
2023/05/04 11:57:35;;;;;;;9.05;2.20;;;;;;;;;;5016170;28;20032;-75
2023/05/04 12:00:11;;;;;;;6.60;2.38;;;;;;;;;;5016423;28;20030;-77
2023/05/04 12:02:36;;;;;;;7.45;2.55;;;;;;;;;;5016296;28;20025;-73
2023/05/04 12:05:05;;;;;;;9.15;2.50;;;;;;;;;;5016210;28;20438;-70
2023/05/04 12:07:35;;;;;;;6.75;2.30;;;;;;;;;;5014733;28;20021;-76
2023/05/04 12:10:01;;;;;;;8.02;2.47;;;;;;;;;;5015542;28;20029;-76
2023/05/04 12:12:34;;;;;;;8.40;2.10;;;;;;;;;;5015500;28;20079;-76
2023/05/04 12:15:00;;;;;;;6.93;2.40;;;;;;;;;;5015847;28;20487;-78
2023/05/04 12:17:25;;;;;;;7.15;2.20;;;;;;;;;;5016073;28;20069;-77
2023/05/04 12:19:55;;;;;;;6.50;2.28;;;;;;;;;;5021504;28;20017;-79
2023/05/04 12:22:27;;;;;;;5.55;1.90;;;;;;;;;;5035018;28;20406;-77
2023/05/04 12:24:55;;;;;;;10.00;2.00;;;;;;;;;;5035211;28;20025;-76
2023/05/04 12:27:21;;;;;;;6.75;2.17;;;;;;;;;;5035066;28;20064;-69
2023/05/04 12:29:46;;;;;;;7.20;2.13;;;;;;;;;;5035108;28;20448;-64
2023/05/04 12:32:12;;;;;;;14.38;3.03;;;;;;;;;;5035147;28;20033;-68
2023/05/04 12:34:37;;;;;;;6.78;2.17;;;;;;;;;;5035201;28;20029;-74
2023/05/04 12:37:03;;;;;;;5.38;1.80;;;;;;;;;;5034930;28;20034;-76
2023/05/04 12:39:31;;;;;;;5.45;2.13;;;;;;;;;;5035647;28;20029;-71
2023/05/04 12:41:57;;;;;;;8.32;2.10;;;;;;;;;;5034968;28;20044;-71
2023/05/04 12:44:23;;;;;;;7.60;2.20;;;;;;;;;;5034789;28;20033;-64
2023/05/04 12:46:49;;;;;;;9.02;2.47;;;;;;;;;;5034590;28;20029;-73
2023/05/04 12:49:14;;;;;;;6.57;2.13;;;;;;;;;;5034652;28;20021;-64
2023/05/04 12:51:40;;;;;;;7.25;2.33;;;;;;;;;;5033030;28;20029;-62
2023/05/04 12:54:06;;;;;;;6.40;2.25;;;;;;;;;;5034827;28;20356;-70
2023/05/04 12:56:32;;;;;;;7.53;2.65;;;;;;;;;;5034393;28;20483;-69
2023/05/04 12:58:58;;;;;;;7.55;2.13;;;;;;;;;;5033002;28;20025;-74
2023/05/04 13:01:23;;;;;;;6.65;2.33;;;;;;;;;;5034255;28;20053;-74
2023/05/04 13:03:49;;;;;;;7.75;2.15;;;;;;;;;;5034333;28;20494;-75
2023/05/04 13:06:14;;;;;;;7.22;2.60;;;;;;;;;;5034301;28;20030;-72
2023/05/04 13:08:40;;;;;;;8.30;2.63;;;;;;;;;;5033940;28;20156;-67
2023/05/04 13:11:05;;;;;;;6.55;2.40;;;;;;;;;;5034108;28;20482;-66
2023/05/04 13:13:31;;;;;;;5.38;2.05;;;;;;;;;;5034241;28;20550;-67
2023/05/04 13:15:56;;;;;;;7.30;1.98;;;;;;;;;;5034144;28;20108;-63
2023/05/04 13:18:28;;;;;;;10.45;2.13;;;;;;;;;;5034185;28;20028;-67
2023/05/04 13:20:54;;;;;;;4.75;1.67;;;;;;;;;;5033731;28;20029;-75
2023/05/04 13:23:23;;;;;;;6.90;2.20;;;;;;;;;;5034161;28;20034;-74
2023/05/04 13:25:49;;;;;;;7.75;2.00;;;;;;;;;;5033710;28;20068;-64
2023/05/04 13:28:15;;;;;;;4.82;1.92;;;;;;;;;;5034071;28;20025;-70
2023/05/04 13:30:41;;;;;;;8.05;2.50;;;;;;;;;;5033816;28;20055;-73
2023/05/04 13:33:06;;;;;;;4.38;1.85;;;;;;;;;;5033861;28;20075;-74
2023/05/04 13:35:32;;;;;;;10.00;1.95;;;;;;;;;;5033482;28;20032;-76
2023/05/04 13:37:58;;;;;;;8.82;1.83;;;;;;;;;;5033520;28;20033;-77
2023/05/04 13:40:24;;;;;;;6.53;2.00;;;;;;;;;;5033672;28;20044;-74
2023/05/04 13:42:49;;;;;;;5.45;1.75;;;;;;;;;;5033675;28;20047;-74
2023/05/04 13:45:15;;;;;;;6.90;2.40;;;;;;;;;;5033682;28;20029;-77
2023/05/04 13:47:40;;;;;;;3.97;1.70;;;;;;;;;;5033558;28;20033;-73
2023/05/04 13:50:06;;;;;;;7.03;1.80;;;;;;;;;;5032800;28;20120;-73
2023/05/04 13:52:32;;;;;;;5.85;2.00;;;;;;;;;;5033134;28;20124;-72
2023/05/04 13:54:58;;;;;;;6.10;1.70;;;;;;;;;;5033471;28;20487;-69
2023/05/04 13:57:26;;;;;;;7.65;1.60;;;;;;;;;;5033337;28;20044;-69
2023/05/04 13:59:53;;;;;;;5.47;1.75;;;;;;;;;;5033326;28;20079;-75
2023/05/04 14:02:18;;;;;;;5.60;1.48;;;;;;;;;;5033340;28;20060;-76
2023/05/04 14:04:44;;;;;;;5.53;1.92;;;;;;;;;;5033089;28;20061;-71
2023/05/04 14:07:09;;;;;;;4.47;1.77;;;;;;;;;;5033252;28;20055;-72
2023/05/04 14:09:35;;;;;;;7.38;2.47;;;;;;;;;;5033079;28;20462;-73
2023/05/04 14:12:01;;;;;;;7.90;2.00;;;;;;;;;;5033088;28;20029;-74
2023/05/04 14:14:27;;;;;;;8.95;2.28;;;;;;;;;;5032863;28;20036;-71
2023/05/04 14:16:52;;;;;;;10.15;2.03;;;;;;;;;;5033103;28;20026;-76
2023/05/04 14:19:18;;;;;;;11.93;4.57;;;;;;;;;;5032595;28;20036;-69
2023/05/04 14:21:43;;;;;;;6.07;2.20;;;;;;;;;;5032647;28;20426;-74
2023/05/04 14:24:09;;;;;;;8.88;2.30;;;;;;;;;;5032887;28;20036;-72
2023/05/04 14:26:34;;;;;;;7.47;2.70;;;;;;;;;;5032858;28;20045;-73
2023/05/04 14:29:00;;;;;;;12.90;2.33;;;;;;;;;;5032804;28;20467;-74
2023/05/04 14:31:25;;;;;;;7.82;2.42;;;;;;;;;;5032733;28;20459;-74